createdAt,value
2019-04-16T00:02:51.247Z,12.10
2019-04-16T00:05:27.757Z,12.80
2019-04-16T00:08:27.254Z,12.70
2019-04-16T00:11:08.008Z,12.33
2019-04-16T00:14:02.991Z,13.43
2019-04-16T00:16:31.558Z,13.03
2019-04-16T00:19:05.698Z,11.47
2019-04-16T00:22:02.996Z,12.73
2019-04-16T00:24:36.245Z,11.50
2019-04-16T00:27:06.842Z,12.03
2019-04-16T00:29:39.597Z,13.87
2019-04-16T00:32:28.959Z,12.27
2019-04-16T00:34:59.960Z,13.37
2019-04-16T00:37:30.537Z,13.27
2019-04-16T00:40:01.133Z,13.57
2019-04-16T00:42:31.739Z,11.50
2019-04-16T00:45:02.356Z,15.43
2019-04-16T00:47:33.612Z,13.40
2019-04-16T00:50:04.440Z,13.20
2019-04-16T00:52:36.918Z,12.80
2019-04-16T00:55:13.498Z,12.27
2019-04-16T00:57:40.892Z,14.97
2019-04-16T01:00:11.603Z,13.53
2019-04-16T01:02:43.230Z,12.67
2019-04-16T01:05:13.787Z,12.33
2019-04-16T01:07:44.751Z,14.47
2019-04-16T01:10:15.671Z,14.03
2019-04-16T01:12:47.123Z,11.70
2019-04-16T01:15:18.068Z,12.73
2019-04-16T01:17:48.548Z,16.97
2019-04-16T01:20:19.133Z,13.87
2019-04-16T01:22:49.595Z,13.87
2019-04-16T01:25:20.323Z,15.93
2019-04-16T01:28:00.964Z,11.73
2019-04-16T01:30:40.831Z,14.47
2019-04-16T01:33:17.370Z,16.00
2019-04-16T01:35:57.771Z,14.27
2019-04-16T01:38:40.174Z,14.00
2019-04-16T01:41:15.651Z,14.60
2019-04-16T01:43:46.136Z,15.23
2019-04-16T01:46:16.662Z,14.00
2019-04-16T01:48:47.659Z,13.57
2019-04-16T01:51:18.612Z,12.97
2019-04-16T01:53:49.488Z,13.43
2019-04-16T01:56:21.280Z,16.03
2019-04-16T01:58:52.269Z,12.50
2019-04-16T02:01:23.223Z,11.90
2019-04-16T02:03:54.184Z,13.07
2019-04-16T02:06:26.058Z,15.03
2019-04-16T02:09:01.770Z,17.13
2019-04-16T02:11:29.625Z,15.40
2019-04-16T02:14:00.080Z,15.27
2019-04-16T02:16:30.688Z,15.03
2019-04-16T02:19:02.329Z,12.83
2019-04-16T02:21:34.215Z,15.27
2019-04-16T02:24:04.740Z,13.33
2019-04-16T02:26:35.225Z,14.53
2019-04-16T02:29:06.762Z,16.53
2019-04-16T02:31:38.098Z,13.80
2019-04-16T02:34:09.001Z,15.70
2019-04-16T02:36:40.509Z,17.10
2019-04-16T02:39:11.981Z,15.30
2019-04-16T02:41:43.410Z,17.00
2019-04-16T02:44:15.920Z,16.33
2019-04-16T02:46:46.623Z,13.03
2019-04-16T02:49:23.080Z,16.07
2019-04-16T02:52:17.537Z,14.77
2019-04-16T02:55:11.153Z,14.33
2019-04-16T02:57:48.288Z,14.43
2019-04-16T03:00:40.858Z,12.50
2019-04-16T03:03:16.059Z,16.07
2019-04-16T03:05:49.763Z,13.73
2019-04-16T03:08:20.247Z,12.70
2019-04-16T03:10:50.799Z,15.20
2019-04-16T03:13:23.330Z,13.60
2019-04-16T03:16:12.441Z,18.33
2019-04-16T03:19:01.918Z,15.53
2019-04-16T03:21:32.999Z,14.87
2019-04-16T03:24:08.025Z,18.10
2019-04-16T03:26:36.199Z,19.20
2019-04-16T03:29:07.146Z,14.13
2019-04-16T03:31:37.589Z,14.20
2019-04-16T03:34:08.096Z,14.77
2019-04-16T03:36:39.152Z,16.40
2019-04-16T03:39:13.207Z,17.60
2019-04-16T03:41:42.235Z,14.80
2019-04-16T03:44:12.731Z,18.07
2019-04-16T03:46:46.872Z,17.63
2019-04-16T03:49:15.984Z,19.97
2019-04-16T03:51:46.543Z,16.07
2019-04-16T03:54:18.871Z,16.00
2019-04-16T03:56:49.768Z,15.30
2019-04-16T03:59:20.697Z,16.13
2019-04-16T04:01:51.740Z,17.53
2019-04-16T04:04:22.332Z,19.73
2019-04-16T04:06:52.939Z,17.43
2019-04-16T04:09:23.901Z,15.10
2019-04-16T04:11:54.535Z,15.27
2019-04-16T04:14:25.500Z,21.57
2019-04-16T04:16:56.062Z,23.57
2019-04-16T04:19:26.589Z,23.07
2019-04-16T04:21:57.125Z,18.07
2019-04-16T04:24:31.461Z,19.13
2019-04-16T04:27:02.789Z,16.43
2019-04-16T04:29:33.740Z,19.90
2019-04-16T04:32:04.437Z,17.00
2019-04-16T04:34:35.929Z,19.83
2019-04-16T04:37:06.493Z,19.10
2019-04-16T04:39:36.980Z,19.37
2019-04-16T04:42:07.574Z,18.33
2019-04-16T04:44:38.970Z,20.03
2019-04-16T04:47:09.471Z,18.47
2019-04-16T04:49:40.435Z,18.00
2019-04-16T04:52:13.627Z,19.17
2019-04-16T04:54:43.199Z,16.80
2019-04-16T04:57:14.333Z,18.17
2019-04-16T04:59:45.304Z,16.10
2019-04-16T05:02:15.959Z,15.60
2019-04-16T05:05:05.764Z,14.00
2019-04-16T05:07:36.433Z,13.93
2019-04-16T05:10:07.338Z,11.97
2019-04-16T05:12:38.936Z,10.37
2019-04-16T05:15:09.544Z,12.53
2019-04-16T05:17:40.008Z,10.40
2019-04-16T05:20:15.097Z,14.20
2019-04-16T05:22:43.217Z,14.03
2019-04-16T05:25:13.860Z,14.50
2019-04-16T05:27:44.349Z,14.17
2019-04-16T05:30:20.415Z,11.67
2019-04-16T05:32:47.442Z,13.87
2019-04-16T05:35:17.958Z,15.77
2019-04-16T05:37:51.087Z,16.23
2019-04-16T05:40:20.917Z,15.47
2019-04-16T05:42:52.745Z,14.03
2019-04-16T05:45:24.377Z,15.60
2019-04-16T05:47:55.786Z,13.90
2019-04-16T05:50:29.688Z,13.80
2019-04-16T05:52:59.402Z,13.10
2019-04-16T05:55:49.958Z,15.77
2019-04-16T05:58:19.981Z,14.07
2019-04-16T06:01:10.424Z,14.80
2019-04-16T06:03:41.630Z,13.73
2019-04-16T06:06:12.161Z,12.13
2019-04-16T06:08:42.784Z,16.47
2019-04-16T06:11:26.681Z,19.53
2019-04-16T06:14:02.564Z,14.97
2019-04-16T06:17:10.727Z,15.17
2019-04-16T06:19:58.971Z,17.63
2019-04-16T06:22:42.714Z,20.17
2019-04-16T06:25:28.471Z,15.87
2019-04-16T06:28:12.588Z,15.57
2019-04-16T06:30:57.876Z,16.37
2019-04-16T06:33:42.000Z,20.20
2019-04-16T06:36:29.980Z,16.43
2019-04-16T06:39:18.075Z,18.30
2019-04-16T06:42:22.520Z,16.77
2019-04-16T06:44:56.501Z,15.60
2019-04-16T06:48:01.113Z,16.93
2019-04-16T06:50:50.637Z,24.17
2019-04-16T06:53:40.076Z,20.27
2019-04-16T06:56:20.657Z,19.53
2019-04-16T06:59:26.567Z,18.77
2019-04-16T07:02:15.146Z,16.50
2019-04-16T07:05:03.852Z,15.90
2019-04-16T07:08:00.833Z,13.10
2019-04-16T07:10:44.318Z,18.30
2019-04-16T07:13:09.952Z,16.73
2019-04-16T07:15:39.134Z,17.93
2019-04-16T07:18:09.672Z,16.33
2019-04-16T07:20:42.289Z,17.50
2019-04-16T07:23:12.965Z,16.13
2019-04-16T07:25:44.906Z,15.93
2019-04-16T07:28:30.829Z,18.67
2019-04-16T07:31:31.823Z,22.23
2019-04-16T07:34:07.272Z,15.83
2019-04-16T07:36:45.620Z,20.47
2019-04-16T07:39:37.132Z,23.97
2019-04-16T07:42:22.176Z,21.63
2019-04-16T07:45:02.883Z,18.57
2019-04-16T07:47:54.478Z,20.50
2019-04-16T07:50:43.859Z,19.87
2019-04-16T07:53:39.767Z,19.10
2019-04-16T07:56:17.089Z,25.97
2019-04-16T07:58:48.468Z,22.37
2019-04-16T08:01:19.356Z,22.43
2019-04-16T08:03:51.251Z,19.47
2019-04-16T08:06:21.676Z,17.73
2019-04-16T08:08:53.989Z,17.23
2019-04-16T08:11:24.273Z,21.73
2019-04-16T08:13:54.824Z,16.57
2019-04-16T08:16:25.343Z,16.87
2019-04-16T08:18:55.879Z,13.90
2019-04-16T08:21:26.836Z,15.60
2019-04-16T08:24:03.552Z,16.53
2019-04-16T08:26:34.151Z,17.63
2019-04-16T08:29:04.579Z,14.60
2019-04-16T08:31:40.770Z,16.40
2019-04-16T08:34:10.423Z,16.80
2019-04-16T08:36:40.895Z,20.73
2019-04-16T08:39:14.363Z,14.93
2019-04-16T08:41:45.286Z,16.00
2019-04-16T08:44:16.314Z,17.23
2019-04-16T08:46:46.829Z,17.20
2019-04-16T08:49:22.139Z,19.13
2019-04-16T08:51:49.852Z,17.17
2019-04-16T08:54:20.446Z,14.40
2019-04-16T08:56:51.765Z,21.13
2019-04-16T08:59:22.322Z,20.87
2019-04-16T09:01:54.497Z,18.10
2019-04-16T09:04:25.044Z,15.87
2019-04-16T09:07:09.608Z,14.13
2019-04-16T09:09:43.528Z,13.27
2019-04-16T09:12:14.581Z,15.50
2019-04-16T09:14:54.891Z,13.03
2019-04-16T09:17:26.537Z,13.30
2019-04-16T09:20:14.705Z,13.40
2019-04-16T09:22:49.211Z,13.27
2019-04-16T09:25:45.693Z,12.20
2019-04-16T09:28:36.576Z,10.43
2019-04-16T09:31:44.324Z,12.07
2019-04-16T09:34:27.775Z,15.53
2019-04-16T09:37:17.827Z,13.73
2019-04-16T09:40:16.478Z,15.77
2019-04-16T09:42:39.212Z,12.03
2019-04-16T09:45:12.320Z,11.50
2019-04-16T09:47:43.890Z,11.60
2019-04-16T09:50:14.717Z,12.00
2019-04-16T09:52:45.398Z,10.03
2019-04-16T09:55:18.860Z,11.63
2019-04-16T09:57:48.217Z,13.50
2019-04-16T10:00:24.380Z,9.80
2019-04-16T10:02:56.501Z,11.50
2019-04-16T10:05:29.595Z,10.93
2019-04-16T10:08:00.299Z,9.60
2019-04-16T10:10:31.368Z,15.30
2019-04-16T10:13:01.955Z,12.27
2019-04-16T10:15:32.595Z,11.20
2019-04-16T10:18:03.601Z,11.83
2019-04-16T10:20:34.571Z,12.30
2019-04-16T10:23:06.640Z,10.20
2019-04-16T10:25:38.221Z,9.07
2019-04-16T10:28:14.944Z,9.90
2019-04-16T10:30:51.064Z,9.17
2019-04-16T10:33:21.679Z,9.37
2019-04-16T10:35:53.462Z,8.60
2019-04-16T10:38:45.748Z,8.85
2019-04-16T10:41:35.644Z,9.50
2019-04-16T10:44:28.309Z,9.87
2019-04-16T10:47:19.741Z,9.20
2019-04-16T10:50:06.674Z,8.57
2019-04-16T10:53:02.264Z,9.60
2019-04-16T10:56:06.912Z,11.70
2019-04-16T10:58:55.264Z,12.93
2019-04-16T11:01:40.124Z,10.73
2019-04-16T11:04:20.892Z,8.27
2019-04-16T11:06:52.662Z,9.05
2019-04-16T11:09:23.260Z,10.03
2019-04-16T11:11:53.818Z,8.80
2019-04-16T11:14:24.485Z,8.70
2019-04-16T11:16:55.138Z,9.20
2019-04-16T11:19:25.682Z,7.20
2019-04-16T11:21:56.741Z,10.82
2019-04-16T11:24:28.725Z,10.13
2019-04-16T11:26:59.347Z,9.90
2019-04-16T11:29:29.926Z,11.45
2019-04-16T11:32:01.058Z,9.80
2019-04-16T11:34:31.664Z,9.53
2019-04-16T11:37:07.349Z,12.23
2019-04-16T11:39:34.770Z,9.88
2019-04-16T11:42:05.479Z,7.92
2019-04-16T11:44:36.831Z,9.50
2019-04-16T11:47:07.940Z,9.70
2019-04-16T11:49:38.831Z,8.90
2019-04-16T11:52:09.984Z,7.40
2019-04-16T11:54:40.500Z,10.68
2019-04-16T11:57:13.134Z,9.63
2019-04-16T11:59:43.617Z,9.95
2019-04-16T12:02:41.889Z,9.73
2019-04-16T12:05:43.336Z,9.45
2019-04-16T12:08:31.781Z,7.97
2019-04-16T12:11:21.314Z,7.95
2019-04-16T12:14:10.707Z,7.10
2019-04-16T12:16:57.951Z,12.55
2019-04-16T12:19:44.947Z,9.65
2019-04-16T12:22:31.545Z,10.65
2019-04-16T12:25:29.274Z,9.40
2019-04-16T12:28:17.344Z,8.78
2019-04-16T12:31:04.446Z,8.18
2019-04-16T12:33:39.445Z,10.20
2019-04-16T12:36:29.816Z,8.35
2019-04-16T12:39:18.588Z,8.70
2019-04-16T12:42:21.779Z,6.62
2019-04-16T12:45:26.950Z,6.90
2019-04-16T12:48:16.413Z,8.45
2019-04-16T12:51:24.055Z,7.50
2019-04-16T12:54:12.293Z,8.80
2019-04-16T12:57:02.582Z,12.70
2019-04-16T12:59:40.235Z,9.98
2019-04-16T13:02:33.121Z,7.60
2019-04-16T13:05:25.328Z,11.97
2019-04-16T13:08:13.809Z,10.60
2019-04-16T13:11:09.758Z,10.68
2019-04-16T13:14:00.806Z,9.68
2019-04-16T13:17:01.758Z,8.48
2019-04-16T13:19:47.564Z,6.22
2019-04-16T13:22:19.189Z,8.23
2019-04-16T13:25:01.166Z,7.85
2019-04-16T13:27:34.489Z,9.23
2019-04-16T13:30:07.480Z,7.80
2019-04-16T13:32:39.106Z,7.87
2019-04-16T13:35:09.712Z,8.33
2019-04-16T13:37:40.183Z,9.03
2019-04-16T13:40:14.083Z,11.03
2019-04-16T13:42:44.644Z,10.55
2019-04-16T13:45:27.102Z,9.08
2019-04-16T13:48:13.905Z,11.88
2019-04-16T13:50:39.912Z,8.55
2019-04-16T13:53:22.596Z,9.98
2019-04-16T13:56:18.997Z,10.05
2019-04-16T13:58:59.007Z,7.12
2019-04-16T14:01:34.398Z,10.25
2019-04-16T14:04:05.474Z,11.43
2019-04-16T14:06:37.138Z,8.65
2019-04-16T14:09:09.580Z,7.70
2019-04-16T14:11:41.253Z,10.32
2019-04-16T14:14:16.999Z,9.23
2019-04-16T14:16:44.821Z,10.70
2019-04-16T14:19:15.439Z,9.18
2019-04-16T14:21:46.043Z,6.97
2019-04-16T14:24:16.569Z,9.45
2019-04-16T14:26:47.096Z,10.05
2019-04-16T14:29:18.474Z,10.13
2019-04-16T14:31:49.595Z,9.28
2019-04-16T14:34:39.136Z,8.75
2019-04-16T14:37:10.055Z,10.93
2019-04-16T14:39:43.361Z,10.13
2019-04-16T14:42:13.901Z,9.63
2019-04-16T14:44:51.689Z,8.70
2019-04-16T14:47:23.406Z,10.95
2019-04-16T14:49:54.875Z,9.55
2019-04-16T14:52:25.728Z,11.03
2019-04-16T14:55:04.298Z,9.45
2019-04-16T14:57:54.981Z,10.63
2019-04-16T15:00:57.379Z,10.15
2019-04-16T15:03:45.383Z,8.58
2019-04-16T15:06:25.407Z,10.55
2019-04-16T15:09:20.869Z,10.40
2019-04-16T15:12:16.828Z,9.53
2019-04-16T15:14:52.788Z,8.40
2019-04-16T15:17:41.168Z,10.03
2019-04-16T15:20:36.174Z,9.45
2019-04-16T15:23:21.787Z,9.25
2019-04-16T15:26:06.088Z,7.97
2019-04-16T15:29:00.796Z,8.33
2019-04-16T15:31:49.151Z,7.90
2019-04-16T15:34:26.285Z,10.25
2019-04-16T15:37:18.863Z,9.85
2019-04-16T15:39:59.118Z,7.62
2019-04-16T15:42:48.455Z,8.58
2019-04-16T15:45:29.948Z,8.10
2019-04-16T15:48:28.307Z,10.25
2019-04-16T15:51:13.959Z,10.70
2019-04-16T15:54:02.845Z,8.30
2019-04-16T15:56:42.523Z,8.30
2019-04-16T15:59:19.914Z,7.47
2019-04-16T16:02:18.365Z,7.87
2019-04-16T16:04:53.569Z,6.43
2019-04-16T16:07:27.166Z,7.20
2019-04-16T16:10:13.736Z,7.17
2019-04-16T16:12:43.280Z,7.27
2019-04-16T16:15:14.126Z,6.07
2019-04-16T16:17:44.752Z,6.70
2019-04-16T16:20:17.020Z,10.77
2019-04-16T16:22:48.154Z,5.97
2019-04-16T16:25:19.919Z,8.00
2019-04-16T16:27:50.529Z,9.70
2019-04-16T16:30:23.068Z,6.90
2019-04-16T16:32:53.945Z,7.57
2019-04-16T16:35:24.675Z,8.57
2019-04-16T16:37:55.344Z,5.80
2019-04-16T16:40:25.884Z,6.60
2019-04-16T16:42:56.497Z,7.70
2019-04-16T16:46:00.887Z,10.13
2019-04-16T16:48:34.616Z,10.17
2019-04-16T16:51:05.578Z,11.60
2019-04-16T16:53:48.536Z,9.20
2019-04-16T16:56:24.415Z,9.83
2019-04-16T16:59:24.919Z,10.40
2019-04-16T17:02:14.292Z,12.73
2019-04-16T17:04:50.972Z,11.13
2019-04-16T17:07:21.547Z,11.30
2019-04-16T17:09:53.243Z,11.97
2019-04-16T17:12:24.213Z,10.97
2019-04-16T17:14:54.807Z,12.73
2019-04-16T17:17:26.669Z,15.50
2019-04-16T17:19:57.248Z,14.13
2019-04-16T17:22:30.382Z,11.20
2019-04-16T17:25:01.964Z,13.03
2019-04-16T17:27:32.998Z,12.07
2019-04-16T17:30:08.418Z,12.93
2019-04-16T17:32:39.269Z,11.40
2019-04-16T17:35:14.292Z,11.57
2019-04-16T17:37:42.687Z,9.90
2019-04-16T17:40:20.116Z,11.77
2019-04-16T17:43:41.536Z,15.30
2019-04-16T17:46:31.746Z,11.13
2019-04-16T17:49:10.508Z,12.93
2019-04-16T17:51:55.860Z,11.57
2019-04-16T17:54:31.855Z,8.93
2019-04-16T17:57:42.624Z,14.00
2019-04-16T18:00:46.029Z,12.43
2019-04-16T18:03:44.381Z,12.43
2019-04-16T18:06:32.669Z,9.90
2019-04-16T18:09:15.193Z,11.27
2019-04-16T18:12:03.552Z,13.33
2019-04-16T18:14:51.902Z,12.03
2019-04-16T18:17:47.700Z,12.33
2019-04-16T18:20:40.144Z,14.77
2019-04-16T18:23:32.200Z,12.47
2019-04-16T18:26:21.434Z,14.57
2019-04-16T18:29:01.817Z,13.00
2019-04-16T18:31:42.913Z,12.60
2019-04-16T18:34:40.263Z,11.80
2019-04-16T18:37:35.624Z,11.70
2019-04-16T18:40:24.241Z,9.47
2019-04-16T18:43:04.884Z,9.03
2019-04-16T18:45:58.400Z,11.57
2019-04-16T18:48:31.273Z,9.30
2019-04-16T18:51:02.847Z,8.70
2019-04-16T18:53:34.600Z,7.00
2019-04-16T18:56:09.588Z,7.73
2019-04-16T18:58:41.728Z,5.83
2019-04-16T19:01:15.249Z,7.00
2019-04-16T19:03:46.286Z,6.73
2019-04-16T19:06:16.784Z,5.30
2019-04-16T19:08:47.755Z,8.20
2019-04-16T19:11:20.487Z,7.60
2019-04-16T19:13:51.299Z,6.20
2019-04-16T19:16:23.372Z,7.03
2019-04-16T19:18:54.834Z,7.30
2019-04-16T19:21:25.860Z,6.37
2019-04-16T19:23:56.991Z,6.97
2019-04-16T19:26:30.506Z,9.00
2019-04-16T19:29:03.866Z,5.10
2019-04-16T19:31:36.805Z,7.00
2019-04-16T19:34:10.192Z,6.57
2019-04-16T19:36:41.700Z,6.70
2019-04-16T19:39:15.483Z,5.80
2019-04-16T19:41:46.296Z,7.50
2019-04-16T19:44:17.350Z,6.37
2019-04-16T19:46:52.485Z,5.63
2019-04-16T19:49:20.500Z,6.33
2019-04-16T19:51:51.429Z,6.30
2019-04-16T19:54:21.985Z,6.60
2019-04-16T19:56:53.868Z,6.67
2019-04-16T19:59:24.476Z,7.03
2019-04-16T20:01:59.295Z,7.83
2019-04-16T20:04:27.252Z,6.50
2019-04-16T20:07:00.865Z,7.23
2019-04-16T20:09:30.473Z,6.40
2019-04-16T20:12:01.484Z,6.93
2019-04-16T20:14:35.385Z,8.43
2019-04-16T20:17:06.146Z,7.33
2019-04-16T20:19:55.992Z,9.90
2019-04-16T20:22:29.676Z,8.40
2019-04-16T20:25:00.442Z,7.87
2019-04-16T20:27:30.978Z,7.63
2019-04-16T20:30:02.165Z,7.00
2019-04-16T20:32:34.365Z,8.10
2019-04-16T20:35:05.880Z,7.77
2019-04-16T20:37:36.756Z,6.37
2019-04-16T20:40:07.385Z,7.00
2019-04-16T20:42:38.420Z,7.13
2019-04-16T20:45:09.699Z,7.00
2019-04-16T20:47:40.229Z,7.53
2019-04-16T20:50:10.672Z,8.67
2019-04-16T20:52:41.826Z,8.80
2019-04-16T20:55:16.033Z,7.30
2019-04-16T20:57:46.037Z,7.53
2019-04-16T21:00:22.363Z,6.60
2019-04-16T21:02:53.410Z,6.07
2019-04-16T21:05:25.529Z,8.00
2019-04-16T21:07:56.464Z,6.83
2019-04-16T21:10:27.030Z,6.83
2019-04-16T21:13:06.604Z,6.40
2019-04-16T21:15:37.304Z,7.50
2019-04-16T21:18:12.110Z,5.40
2019-04-16T21:20:43.596Z,8.03
2019-04-16T21:23:16.223Z,7.10
2019-04-16T21:25:46.833Z,6.37
2019-04-16T21:28:29.239Z,6.07
2019-04-16T21:31:06.332Z,5.97
2019-04-16T21:34:08.762Z,5.23
2019-04-16T21:36:44.607Z,7.03
2019-04-16T21:39:22.916Z,7.27
2019-04-16T21:42:00.526Z,7.63
2019-04-16T21:44:28.963Z,7.67
2019-04-16T21:46:59.573Z,10.67
2019-04-16T21:49:38.531Z,9.70
2019-04-16T21:52:09.060Z,9.70
2019-04-16T21:54:40.106Z,8.13
2019-04-16T21:57:13.531Z,9.00
2019-04-16T21:59:43.152Z,9.27
2019-04-16T22:02:38.972Z,7.77
2019-04-16T22:05:10.895Z,11.57
2019-04-16T22:07:41.985Z,9.47
2019-04-16T22:10:13.016Z,8.80
2019-04-16T22:12:44.745Z,9.10
2019-04-16T22:15:15.677Z,9.60
2019-04-16T22:17:46.112Z,8.83
2019-04-16T22:20:16.573Z,7.63
2019-04-16T22:22:47.479Z,8.97
2019-04-16T22:25:18.489Z,10.43
2019-04-16T22:27:48.938Z,8.37
2019-04-16T22:30:20.117Z,8.57
2019-04-16T22:32:50.592Z,8.10
2019-04-16T22:35:21.021Z,9.33
2019-04-16T22:37:51.662Z,10.53
2019-04-16T22:40:56.596Z,9.23
2019-04-16T22:43:46.131Z,11.40
2019-04-16T22:46:21.013Z,11.87
2019-04-16T22:48:55.520Z,13.50
2019-04-16T22:51:27.052Z,13.27
2019-04-16T22:53:57.735Z,12.67
2019-04-16T22:56:54.165Z,10.87
2019-04-16T22:59:25.460Z,12.07
2019-04-16T23:01:56.324Z,10.53
2019-04-16T23:04:28.788Z,11.30
2019-04-16T23:06:59.794Z,11.93
2019-04-16T23:09:31.380Z,9.53
2019-04-16T23:12:02.367Z,10.63
2019-04-16T23:14:34.949Z,10.57
2019-04-16T23:17:05.448Z,10.87
2019-04-16T23:19:36.064Z,10.30
2019-04-16T23:22:06.582Z,10.43
2019-04-16T23:24:37.110Z,10.63
2019-04-16T23:27:09.206Z,10.03
2019-04-16T23:29:40.860Z,10.33
2019-04-16T23:32:11.801Z,12.23
2019-04-16T23:34:42.729Z,11.83
2019-04-16T23:37:13.239Z,11.07
2019-04-16T23:39:43.763Z,9.13
2019-04-16T23:42:18.835Z,10.60
2019-04-16T23:45:00.125Z,11.03
2019-04-16T23:47:51.532Z,11.97
2019-04-16T23:50:46.843Z,10.40
2019-04-16T23:53:38.182Z,10.23
2019-04-16T23:56:21.399Z,9.37
2019-04-16T23:59:14.295Z,10.70
